createdAt,value
2019-04-12T00:02:05.546Z,99.90
2019-04-12T00:04:34.111Z,99.90
2019-04-12T00:07:03.201Z,99.90
2019-04-12T00:09:32.606Z,99.90
2019-04-12T00:12:01.058Z,99.90
2019-04-12T00:14:29.508Z,99.90
2019-04-12T00:16:57.989Z,99.90
2019-04-12T00:19:26.451Z,99.90
2019-04-12T00:21:54.934Z,99.90
2019-04-12T00:24:34.109Z,99.90
2019-04-12T00:26:53.685Z,99.90
2019-04-12T00:29:22.214Z,99.90
2019-04-12T00:31:51.426Z,99.90
2019-04-12T00:34:23.008Z,99.90
2019-04-12T00:36:53.162Z,99.90
2019-04-12T00:39:21.006Z,99.90
2019-04-12T00:41:49.483Z,99.90
2019-04-12T00:44:18.018Z,99.90
2019-04-12T00:46:46.570Z,99.90
2019-04-12T00:49:15.106Z,99.90
2019-04-12T00:51:43.676Z,99.90
2019-04-12T00:54:13.584Z,99.90
2019-04-12T00:56:46.205Z,99.90
2019-04-12T00:59:17.131Z,99.90
2019-04-12T01:02:00.450Z,99.90
2019-04-12T01:04:30.621Z,99.90
2019-04-12T01:06:59.174Z,99.90
2019-04-12T01:09:27.774Z,99.90
2019-04-12T01:11:56.419Z,99.90
2019-04-12T01:14:27.488Z,99.90
2019-04-12T01:16:55.168Z,99.90
2019-04-12T01:19:23.698Z,99.90
2019-04-12T01:21:58.815Z,99.90
2019-04-12T01:24:27.618Z,99.90
2019-04-12T01:26:56.174Z,99.90
2019-04-12T01:29:24.638Z,99.90
2019-04-12T01:31:53.207Z,99.90
2019-04-12T01:34:21.743Z,99.90
2019-04-12T01:36:50.303Z,99.90
2019-04-12T01:39:18.838Z,99.90
2019-04-12T01:41:47.331Z,99.90
2019-04-12T01:44:16.343Z,99.90
2019-04-12T01:46:44.910Z,99.90
2019-04-12T01:49:13.450Z,99.90
2019-04-12T01:51:42.027Z,99.90
2019-04-12T01:54:10.557Z,99.90
2019-04-12T01:56:39.090Z,99.90
2019-04-12T01:59:07.666Z,99.90
2019-04-12T02:01:36.202Z,99.90
2019-04-12T02:04:04.836Z,99.90
2019-04-12T02:06:33.695Z,99.90
2019-04-12T02:09:02.257Z,99.90
2019-04-12T02:11:30.790Z,99.90
2019-04-12T02:13:59.354Z,99.90
2019-04-12T02:16:27.891Z,99.90
2019-04-12T02:18:56.454Z,99.90
2019-04-12T02:21:24.989Z,99.90
2019-04-12T02:23:53.479Z,99.90
2019-04-12T02:26:21.947Z,99.90
2019-04-12T02:28:53.600Z,99.90
2019-04-12T02:31:26.984Z,99.90
2019-04-12T02:33:56.594Z,99.90
2019-04-12T02:36:32.184Z,99.90
2019-04-12T02:39:00.820Z,99.90
2019-04-12T02:41:29.719Z,99.90
2019-04-12T02:43:59.328Z,99.90
2019-04-12T02:46:31.536Z,99.90
2019-04-12T02:49:13.296Z,99.90
2019-04-12T02:51:49.175Z,99.90
2019-04-12T02:54:25.098Z,99.90
2019-04-12T02:56:58.052Z,99.90
2019-04-12T02:59:28.506Z,99.90
2019-04-12T03:01:59.656Z,99.90
2019-04-12T03:04:28.284Z,99.90
2019-04-12T03:06:57.593Z,99.90
2019-04-12T03:09:29.064Z,99.90
2019-04-12T03:11:59.444Z,99.90
2019-04-12T03:14:31.224Z,99.90
2019-04-12T03:17:01.596Z,99.90
2019-04-12T03:19:31.167Z,99.90
2019-04-12T03:22:00.573Z,99.90
2019-04-12T03:24:29.661Z,99.90
2019-04-12T03:26:58.857Z,99.90
2019-04-12T03:29:27.626Z,99.90
2019-04-12T03:31:56.763Z,99.90
2019-04-12T03:34:25.457Z,99.90
2019-04-12T03:36:54.275Z,99.90
2019-04-12T03:39:23.134Z,99.90
2019-04-12T03:41:52.285Z,99.90
2019-04-12T03:44:20.875Z,99.90
2019-04-12T03:46:49.502Z,99.90
2019-04-12T03:49:18.191Z,99.90
2019-04-12T03:51:47.117Z,99.90
2019-04-12T03:54:16.675Z,99.90
2019-04-12T03:56:45.388Z,99.90
2019-04-12T03:59:19.822Z,99.90
2019-04-12T04:01:57.923Z,99.90
2019-04-12T04:04:26.895Z,99.90
2019-04-12T04:06:56.312Z,99.90
2019-04-12T04:09:25.284Z,99.90
2019-04-12T04:11:54.079Z,99.90
2019-04-12T04:14:23.853Z,99.90
2019-04-12T04:17:12.387Z,99.90
2019-04-12T04:19:42.642Z,99.90
2019-04-12T04:22:13.419Z,99.90
2019-04-12T04:24:47.030Z,99.90
2019-04-12T04:27:32.657Z,99.90
2019-04-12T04:30:02.913Z,99.90
2019-04-12T04:32:33.940Z,99.90
2019-04-12T04:35:03.011Z,99.90
2019-04-12T04:37:32.619Z,99.90
2019-04-12T04:40:01.487Z,99.90
2019-04-12T04:42:30.200Z,99.90
2019-04-12T04:44:59.300Z,99.90
2019-04-12T04:47:27.860Z,99.90
2019-04-12T04:49:56.464Z,99.90
2019-04-12T04:52:25.166Z,99.90
2019-04-12T04:54:54.037Z,99.90
2019-04-12T04:57:22.603Z,99.90
2019-04-12T04:59:51.371Z,99.90
2019-04-12T05:02:20.207Z,99.90
2019-04-12T05:04:49.074Z,99.90
2019-04-12T05:07:17.780Z,99.90
2019-04-12T05:09:46.394Z,99.90
2019-04-12T05:12:15.291Z,99.90
2019-04-12T05:14:44.122Z,99.90
2019-04-12T05:17:12.836Z,99.90
2019-04-12T05:19:41.507Z,99.90
2019-04-12T05:22:10.500Z,99.90
2019-04-12T05:24:39.436Z,99.90
2019-04-12T05:27:08.323Z,99.90
2019-04-12T05:29:37.025Z,99.90
2019-04-12T05:32:05.824Z,99.90
2019-04-12T05:34:34.530Z,99.90
2019-04-12T05:37:10.119Z,99.90
2019-04-12T05:39:33.863Z,99.90
2019-04-12T05:42:02.534Z,99.90
2019-04-12T05:44:31.163Z,99.90
2019-04-12T05:47:01.342Z,99.90
2019-04-12T05:49:34.382Z,99.90
2019-04-12T05:52:03.057Z,99.90
2019-04-12T05:54:32.761Z,99.90
2019-04-12T05:57:02.166Z,99.90
2019-04-12T05:59:35.093Z,99.90
2019-04-12T06:02:08.569Z,99.90
2019-04-12T06:04:37.131Z,99.90
2019-04-12T06:07:05.659Z,99.90
2019-04-12T06:09:34.298Z,99.90
2019-04-12T06:12:02.839Z,99.90
2019-04-12T06:14:31.647Z,99.90
2019-04-12T06:17:01.811Z,99.90
2019-04-12T06:19:31.322Z,99.90
2019-04-12T06:22:10.937Z,99.90
2019-04-12T06:24:40.358Z,99.90
2019-04-12T06:27:12.978Z,99.90
2019-04-12T06:29:41.546Z,99.90
2019-04-12T06:32:10.325Z,99.90
2019-04-12T06:34:39.027Z,99.90
2019-04-12T06:37:07.626Z,99.90
2019-04-12T06:39:36.154Z,99.90
2019-04-12T06:42:04.641Z,99.90
2019-04-12T06:44:33.567Z,99.90
2019-04-12T06:47:02.274Z,99.90
2019-04-12T06:49:31.036Z,99.90
2019-04-12T06:51:59.927Z,99.90
2019-04-12T06:54:28.458Z,99.90
2019-04-12T06:56:58.747Z,99.90
2019-04-12T06:59:27.282Z,99.90
2019-04-12T07:02:06.762Z,99.90
2019-04-12T07:04:37.002Z,99.90
2019-04-12T07:07:05.563Z,99.90
2019-04-12T07:09:34.105Z,99.90
2019-04-12T07:12:03.010Z,99.90
2019-04-12T07:14:31.544Z,99.90
2019-04-12T07:17:00.181Z,99.90
2019-04-12T07:19:28.726Z,99.90
2019-04-12T07:21:57.221Z,99.90
2019-04-12T07:24:26.018Z,99.90
2019-04-12T07:26:54.583Z,99.90
2019-04-12T07:29:23.126Z,99.90
2019-04-12T07:31:51.707Z,99.90
2019-04-12T07:34:20.249Z,99.90
2019-04-12T07:36:48.807Z,99.90
2019-04-12T07:39:17.419Z,99.90
2019-04-12T07:41:45.998Z,99.90
2019-04-12T07:44:14.536Z,99.90
2019-04-12T07:46:43.105Z,99.90
2019-04-12T07:49:11.643Z,99.90
2019-04-12T07:51:50.978Z,99.90
2019-04-12T07:54:24.112Z,99.90
2019-04-12T07:56:52.966Z,99.90
2019-04-12T07:59:23.171Z,99.90
2019-04-12T08:01:53.613Z,99.90
2019-04-12T08:04:32.746Z,99.90
2019-04-12T08:07:21.419Z,99.90
2019-04-12T08:09:49.954Z,99.90
2019-04-12T08:12:18.520Z,99.90
2019-04-12T08:14:47.055Z,99.60
2019-04-12T08:17:15.692Z,98.90
2019-04-12T08:19:44.229Z,99.90
2019-04-12T08:22:12.723Z,99.40
2019-04-12T08:24:41.830Z,96.80
2019-04-12T08:27:10.472Z,97.40
2019-04-12T08:29:39.045Z,98.70
2019-04-12T08:32:07.590Z,98.50
2019-04-12T08:34:36.169Z,98.70
2019-04-12T08:37:04.716Z,96.70
2019-04-12T08:39:33.284Z,97.00
2019-04-12T08:42:01.893Z,95.60
2019-04-12T08:44:30.462Z,95.70
2019-04-12T08:46:59.012Z,95.70
2019-04-12T08:49:27.587Z,95.20
2019-04-12T08:51:56.101Z,95.30
2019-04-12T08:54:24.675Z,95.10
2019-04-12T08:56:53.682Z,94.20
2019-04-12T08:59:22.575Z,94.50
2019-04-12T09:01:51.153Z,93.10
2019-04-12T09:04:19.722Z,92.70
2019-04-12T09:06:48.394Z,93.80
2019-04-12T09:09:18.879Z,93.50
2019-04-12T09:11:47.359Z,94.00
2019-04-12T09:14:15.896Z,92.50
2019-04-12T09:16:44.517Z,92.00
2019-04-12T09:19:23.745Z,92.40
2019-04-12T09:21:59.956Z,92.00
2019-04-12T09:24:33.084Z,92.60
2019-04-12T09:27:01.709Z,93.60
2019-04-12T09:29:30.373Z,93.10
2019-04-12T09:31:59.022Z,91.90
2019-04-12T09:34:27.582Z,92.30
2019-04-12T09:36:56.382Z,91.00
2019-04-12T09:39:26.269Z,91.20
2019-04-12T09:41:54.995Z,90.10
2019-04-12T09:44:23.554Z,88.50
2019-04-12T09:46:52.092Z,87.60
2019-04-12T09:49:21.481Z,90.80
2019-04-12T09:51:50.528Z,90.60
2019-04-12T09:54:19.091Z,90.10
2019-04-12T09:56:47.629Z,89.50
2019-04-12T09:59:16.474Z,88.20
2019-04-12T10:01:45.013Z,87.90
2019-04-12T10:04:13.619Z,88.10
2019-04-12T10:06:42.166Z,89.10
2019-04-12T10:09:14.195Z,87.10
2019-04-12T10:11:41.140Z,87.80
2019-04-12T10:14:09.702Z,89.50
2019-04-12T10:16:38.247Z,90.00
2019-04-12T10:19:06.810Z,88.00
2019-04-12T10:21:35.354Z,88.00
2019-04-12T10:24:04.085Z,87.80
2019-04-12T10:26:32.615Z,87.50
2019-04-12T10:29:01.494Z,88.60
2019-04-12T10:31:30.379Z,88.80
2019-04-12T10:34:00.714Z,86.20
2019-04-12T10:36:29.450Z,87.00
2019-04-12T10:39:08.562Z,86.00
2019-04-12T10:41:37.227Z,86.10
2019-04-12T10:44:19.311Z,88.00
2019-04-12T10:46:49.590Z,86.40
2019-04-12T10:49:32.127Z,85.30
2019-04-12T10:52:05.053Z,86.10
2019-04-12T10:54:51.667Z,82.90
2019-04-12T10:57:20.505Z,86.20
2019-04-12T10:59:49.061Z,86.60
2019-04-12T11:02:17.863Z,83.90
2019-04-12T11:04:46.397Z,85.80
2019-04-12T11:07:14.886Z,83.80
2019-04-12T11:09:43.426Z,81.70
2019-04-12T11:12:11.995Z,83.30
2019-04-12T11:14:40.533Z,80.80
2019-04-12T11:17:09.234Z,81.20
2019-04-12T11:19:37.767Z,81.80
2019-04-12T11:22:06.408Z,81.00
2019-04-12T11:24:34.943Z,80.50
2019-04-12T11:27:03.514Z,80.80
2019-04-12T11:29:32.043Z,81.50
2019-04-12T11:32:00.608Z,80.70
2019-04-12T11:34:29.143Z,79.70
2019-04-12T11:36:57.702Z,80.90
2019-04-12T11:39:26.234Z,81.40
2019-04-12T11:41:54.788Z,80.50
2019-04-12T11:44:23.742Z,80.50
2019-04-12T11:46:52.313Z,80.60
2019-04-12T11:49:20.860Z,79.10
2019-04-12T11:51:49.416Z,80.50
2019-04-12T11:54:18.023Z,77.70
2019-04-12T11:56:46.854Z,77.70
2019-04-12T11:59:15.388Z,77.70
2019-04-12T12:01:45.594Z,78.80
2019-04-12T12:04:18.443Z,79.60
2019-04-12T12:06:48.647Z,77.30
2019-04-12T12:09:34.227Z,79.40
2019-04-12T12:12:07.560Z,80.70
2019-04-12T12:14:37.745Z,78.70
2019-04-12T12:17:16.522Z,77.60
2019-04-12T12:19:45.062Z,80.80
2019-04-12T12:22:16.230Z,80.70
2019-04-12T12:24:43.814Z,77.80
2019-04-12T12:27:12.375Z,79.40
2019-04-12T12:29:42.820Z,78.30
2019-04-12T12:32:11.194Z,78.60
2019-04-12T12:34:39.731Z,77.10
2019-04-12T12:37:08.290Z,76.30
2019-04-12T12:39:36.750Z,79.60
2019-04-12T12:42:05.378Z,80.40
2019-04-12T12:44:33.914Z,80.90
2019-04-12T12:47:02.544Z,78.70
2019-04-12T12:49:31.150Z,80.20
2019-04-12T12:51:59.689Z,80.10
2019-04-12T12:54:28.318Z,80.70
2019-04-12T12:56:56.863Z,78.50
2019-04-12T12:59:25.424Z,76.40
2019-04-12T13:01:53.963Z,78.30
2019-04-12T13:04:22.523Z,80.40
2019-04-12T13:06:51.319Z,80.70
2019-04-12T13:09:19.881Z,79.20
2019-04-12T13:11:48.411Z,81.60
2019-04-12T13:14:16.903Z,82.50
2019-04-12T13:16:45.429Z,81.70
2019-04-12T13:19:13.915Z,84.10
2019-04-12T13:21:42.449Z,84.40
2019-04-12T13:24:11.082Z,84.20
2019-04-12T13:26:39.776Z,82.80
2019-04-12T13:29:08.340Z,83.00
2019-04-12T13:31:53.952Z,82.10
2019-04-12T13:34:24.159Z,82.70
2019-04-12T13:36:54.343Z,83.60
2019-04-12T13:39:36.870Z,83.40
2019-04-12T13:42:06.974Z,84.80
2019-04-12T13:44:35.543Z,83.60
2019-04-12T13:47:04.147Z,83.00
2019-04-12T13:49:32.714Z,85.40
2019-04-12T13:52:02.357Z,84.70
2019-04-12T13:54:31.014Z,85.10
2019-04-12T13:56:59.467Z,84.60
2019-04-12T13:59:28.035Z,85.60
2019-04-12T14:01:56.899Z,85.40
2019-04-12T14:04:25.476Z,85.60
2019-04-12T14:06:54.262Z,85.70
2019-04-12T14:09:22.827Z,84.60
2019-04-12T14:11:51.360Z,86.50
2019-04-12T14:14:19.930Z,88.30
2019-04-12T14:16:48.469Z,85.10
2019-04-12T14:19:17.038Z,86.00
2019-04-12T14:21:45.570Z,84.80
2019-04-12T14:24:14.309Z,85.40
2019-04-12T14:27:02.149Z,85.90
2019-04-12T14:29:30.711Z,86.40
2019-04-12T14:31:59.873Z,86.20
2019-04-12T14:34:48.089Z,85.10
2019-04-12T14:37:18.602Z,84.30
2019-04-12T14:39:47.099Z,85.20
2019-04-12T14:42:15.638Z,84.70
2019-04-12T14:44:48.567Z,85.10
2019-04-12T14:47:27.549Z,84.60
2019-04-12T14:49:56.460Z,85.50
2019-04-12T14:52:24.994Z,86.00
2019-04-12T14:54:53.535Z,85.70
2019-04-12T14:57:22.094Z,86.10
2019-04-12T14:59:50.656Z,85.70
2019-04-12T15:02:19.659Z,85.60
2019-04-12T15:04:48.126Z,86.50
2019-04-12T15:07:16.696Z,88.40
2019-04-12T15:09:45.241Z,88.80
2019-04-12T15:12:13.799Z,90.40
2019-04-12T15:14:42.335Z,91.40
2019-04-12T15:17:10.903Z,93.20
2019-04-12T15:19:39.443Z,90.70
2019-04-12T15:22:08.109Z,89.90
2019-04-12T15:24:36.617Z,89.70
2019-04-12T15:27:05.587Z,86.90
2019-04-12T15:29:34.127Z,88.60
2019-04-12T15:32:02.696Z,89.00
2019-04-12T15:34:31.530Z,88.70
2019-04-12T15:37:00.099Z,90.20
2019-04-12T15:39:28.630Z,88.30
2019-04-12T15:41:57.378Z,88.00
2019-04-12T15:44:25.919Z,88.00
2019-04-12T15:46:54.486Z,87.80
2019-04-12T15:49:23.018Z,88.10
2019-04-12T15:51:51.574Z,88.50
2019-04-12T15:54:20.043Z,89.50
2019-04-12T15:56:48.603Z,89.20
2019-04-12T15:59:17.134Z,89.20
2019-04-12T16:01:45.623Z,90.10
2019-04-12T16:04:14.228Z,90.50
2019-04-12T16:06:43.423Z,90.40
2019-04-12T16:09:19.654Z,90.60
2019-04-12T16:11:54.217Z,89.50
2019-04-12T16:14:23.382Z,89.40
2019-04-12T16:17:13.129Z,90.20
2019-04-12T16:19:41.667Z,90.00
2019-04-12T16:22:10.230Z,90.70
2019-04-12T16:24:38.688Z,90.90
2019-04-12T16:27:07.257Z,91.10
2019-04-12T16:29:46.644Z,91.90
2019-04-12T16:32:29.161Z,90.80
2019-04-12T16:35:14.202Z,90.90
2019-04-12T16:37:56.166Z,91.00
2019-04-12T16:40:24.630Z,90.90
2019-04-12T16:42:53.196Z,90.30
2019-04-12T16:45:21.802Z,90.80
2019-04-12T16:47:50.365Z,91.50
2019-04-12T16:50:18.902Z,92.10
2019-04-12T16:52:47.466Z,91.90
2019-04-12T16:55:16.045Z,92.30
2019-04-12T16:57:44.616Z,92.30
2019-04-12T17:00:13.893Z,92.50
2019-04-12T17:02:42.695Z,92.30
2019-04-12T17:05:11.497Z,92.90
2019-04-12T17:07:50.819Z,92.00
2019-04-12T17:10:10.382Z,91.60
2019-04-12T17:12:38.923Z,91.50
2019-04-12T17:15:07.622Z,92.10
2019-04-12T17:17:36.157Z,92.60
2019-04-12T17:20:05.961Z,93.00
2019-04-12T17:22:34.499Z,93.00
2019-04-12T17:25:06.480Z,93.60
2019-04-12T17:27:33.318Z,93.30
2019-04-12T17:30:01.817Z,93.50
2019-04-12T17:32:30.370Z,93.30
2019-04-12T17:34:58.927Z,93.70
2019-04-12T17:37:27.475Z,93.30
2019-04-12T17:39:56.041Z,93.70
2019-04-12T17:42:24.903Z,93.70
2019-04-12T17:44:53.466Z,94.50
2019-04-12T17:47:21.930Z,94.70
2019-04-12T17:49:52.139Z,93.90
2019-04-12T17:52:25.070Z,94.30
2019-04-12T17:55:11.526Z,94.50
2019-04-12T17:57:40.066Z,95.10
2019-04-12T18:00:10.882Z,95.50
2019-04-12T18:02:43.743Z,95.30
2019-04-12T18:05:13.807Z,95.60
2019-04-12T18:07:42.583Z,95.60
2019-04-12T18:10:13.186Z,96.60
2019-04-12T18:12:41.800Z,97.50
2019-04-12T18:15:12.638Z,98.30
2019-04-12T18:17:41.180Z,98.90
2019-04-12T18:20:10.487Z,99.50
2019-04-12T18:22:39.023Z,99.90
2019-04-12T18:25:08.463Z,99.90
2019-04-12T18:27:37.073Z,99.90
2019-04-12T18:30:08.790Z,99.90
2019-04-12T18:32:37.258Z,99.90
2019-04-12T18:35:07.572Z,99.90
2019-04-12T18:37:36.862Z,99.90
2019-04-12T18:40:06.971Z,99.90
2019-04-12T18:42:35.515Z,99.90
2019-04-12T18:45:10.062Z,99.90
2019-04-12T18:47:38.598Z,99.90
2019-04-12T18:50:07.802Z,99.90
2019-04-12T18:52:36.343Z,99.90
2019-04-12T18:55:07.094Z,99.90
2019-04-12T18:57:35.639Z,99.90
2019-04-12T19:00:08.136Z,99.90
2019-04-12T19:02:36.662Z,99.90
2019-04-12T19:05:07.372Z,99.90
2019-04-12T19:07:35.999Z,99.90
2019-04-12T19:10:06.759Z,99.90
2019-04-12T19:12:35.314Z,99.90
2019-04-12T19:15:09.575Z,99.90
2019-04-12T19:17:38.179Z,99.90
2019-04-12T19:20:07.727Z,99.90
2019-04-12T19:22:36.372Z,99.90
2019-04-12T19:25:06.750Z,99.90
2019-04-12T19:27:35.318Z,99.90
2019-04-12T19:30:07.241Z,99.90
2019-04-12T19:32:39.444Z,99.90
2019-04-12T19:35:09.416Z,99.90
2019-04-12T19:37:58.074Z,99.90
2019-04-12T19:40:28.250Z,99.90
2019-04-12T19:42:56.747Z,99.90
2019-04-12T19:45:25.290Z,99.90
2019-04-12T19:47:54.377Z,99.90
2019-04-12T19:50:22.977Z,99.90
2019-04-12T19:52:51.548Z,99.90
2019-04-12T19:55:20.087Z,99.90
2019-04-12T19:57:48.659Z,99.90
2019-04-12T20:00:17.706Z,99.90
2019-04-12T20:02:51.669Z,99.90
2019-04-12T20:05:16.474Z,99.90
2019-04-12T20:07:45.044Z,99.90
2019-04-12T20:10:13.651Z,99.90
2019-04-12T20:12:42.215Z,99.90
2019-04-12T20:15:11.094Z,99.90
2019-04-12T20:17:39.655Z,99.90
2019-04-12T20:20:08.625Z,99.90
2019-04-12T20:22:37.191Z,99.90
2019-04-12T20:25:07.074Z,99.90
2019-04-12T20:27:35.638Z,99.90
2019-04-12T20:30:07.262Z,99.90
2019-04-12T20:32:35.910Z,99.90
2019-04-12T20:35:04.984Z,99.90
2019-04-12T20:37:33.555Z,99.90
2019-04-12T20:40:02.105Z,99.90
2019-04-12T20:42:30.971Z,99.90
2019-04-12T20:44:59.510Z,99.90
2019-04-12T20:47:28.083Z,99.90
2019-04-12T20:49:56.632Z,99.90
2019-04-12T20:52:25.195Z,99.90
2019-04-12T20:54:53.734Z,99.90
2019-04-12T20:57:22.275Z,99.90
2019-04-12T20:59:50.839Z,99.90
2019-04-12T21:02:29.536Z,99.90
2019-04-12T21:04:49.600Z,99.90
2019-04-12T21:07:18.144Z,99.90
2019-04-12T21:09:46.710Z,99.90
2019-04-12T21:12:15.250Z,99.90
2019-04-12T21:14:43.818Z,99.90
2019-04-12T21:17:12.643Z,99.90
2019-04-12T21:19:41.203Z,99.90
2019-04-12T21:22:09.666Z,99.90
2019-04-12T21:24:38.248Z,99.90
2019-04-12T21:27:06.789Z,99.90
2019-04-12T21:29:35.358Z,99.90
2019-04-12T21:32:03.929Z,99.90
2019-04-12T21:34:32.466Z,99.90
2019-04-12T21:37:01.287Z,99.90
2019-04-12T21:39:30.965Z,99.90
2019-04-12T21:41:59.862Z,99.90
2019-04-12T21:44:28.439Z,99.90
2019-04-12T21:46:56.978Z,99.90
2019-04-12T21:49:25.575Z,99.90
2019-04-12T21:51:54.078Z,99.90
2019-04-12T21:54:22.579Z,99.90
2019-04-12T21:56:51.470Z,99.90
2019-04-12T21:59:20.038Z,99.90
2019-04-12T22:01:48.707Z,99.90
2019-04-12T22:04:17.771Z,99.90
2019-04-12T22:06:46.322Z,99.90
2019-04-12T22:09:14.878Z,99.90
2019-04-12T22:11:43.415Z,99.90
2019-04-12T22:14:15.002Z,99.90
2019-04-12T22:16:42.439Z,99.90
2019-04-12T22:19:11.006Z,99.90
2019-04-12T22:21:39.555Z,99.90
2019-04-12T22:24:08.180Z,99.90
2019-04-12T22:26:36.746Z,99.90
2019-04-12T22:29:05.287Z,99.90
2019-04-12T22:31:35.498Z,99.90
2019-04-12T22:34:04.098Z,99.90
2019-04-12T22:36:32.662Z,99.90
2019-04-12T22:39:01.219Z,99.90
2019-04-12T22:41:29.786Z,99.90
2019-04-12T22:43:58.328Z,99.90
2019-04-12T22:46:26.894Z,99.90
2019-04-12T22:48:55.433Z,99.90
2019-04-12T22:51:23.931Z,99.90
2019-04-12T22:53:52.467Z,99.90
2019-04-12T22:56:21.035Z,99.90
2019-04-12T22:58:49.570Z,99.90
2019-04-12T23:01:18.062Z,99.90
2019-04-12T23:03:46.603Z,99.90
2019-04-12T23:06:15.169Z,99.90
2019-04-12T23:08:43.903Z,99.90
2019-04-12T23:11:12.467Z,99.90
2019-04-12T23:13:41.010Z,99.90
2019-04-12T23:16:09.575Z,99.90
2019-04-12T23:18:38.435Z,99.90
2019-04-12T23:21:07.070Z,99.90
2019-04-12T23:23:35.611Z,99.90
2019-04-12T23:26:04.182Z,99.90
2019-04-12T23:28:32.719Z,99.90
2019-04-12T23:31:08.693Z,99.90
2019-04-12T23:33:38.866Z,99.90
2019-04-12T23:36:07.434Z,99.90
2019-04-12T23:38:35.975Z,99.90
2019-04-12T23:41:04.874Z,99.90
2019-04-12T23:43:33.418Z,99.90
2019-04-12T23:46:02.246Z,99.90
2019-04-12T23:48:30.784Z,99.90
2019-04-12T23:50:59.322Z,99.90
2019-04-12T23:53:27.890Z,99.90
2019-04-12T23:55:56.431Z,99.90
2019-04-12T23:58:25.000Z,99.90
